Time;durP1;ratioP1;P1;durP2;ratioP2;P2;SDS_P1;SDS_P2;PMS_P1;PMS_P2;Temp;Humidity;BMP_temperature;BMP_pressure;BME280_temperature;BME280_humidity;BME280_pressure;Samples;Min_cycle;Max_cycle;Signal;HPM_P1;HPM_P2
2022/04/04 00:00:36;;;;;;;7.28;5.60;;;;;;;4.13;67.43;100897.53;6195663;23;20009;-72
2022/04/04 00:03:01;;;;;;;11.90;6.45;;;;;;;4.14;67.21;100901.91;6173833;23;20022;-72
2022/04/04 00:05:27;;;;;;;9.85;5.40;;;;;;;4.11;67.59;100891.50;6174585;23;20056;-72
2022/04/04 00:07:54;;;;;;;9.57;5.18;;;;;;;4.02;67.18;100878.19;6171782;23;20011;-72
2022/04/04 00:10:30;;;;;;;11.05;5.93;;;;;;;3.98;67.52;100868.81;6199623;23;20012;-72
2022/04/04 00:12:55;;;;;;;8.90;6.25;;;;;;;3.96;67.83;100865.50;6224226;23;20303;-72
2022/04/04 00:15:21;;;;;;;9.35;6.40;;;;;;;4.08;67.33;100878.41;6173141;23;20103;-72
2022/04/04 00:17:46;;;;;;;9.68;5.93;;;;;;;3.96;67.65;100862.81;6197783;23;20008;-72
2022/04/04 00:20:12;;;;;;;10.13;6.68;;;;;;;3.94;67.35;100840.56;6224373;23;20028;-72
2022/04/04 00:22:38;;;;;;;8.18;5.63;;;;;;;3.99;67.50;100834.50;6221968;23;20423;-72
2022/04/04 00:25:04;;;;;;;7.40;5.70;;;;;;;4.18;67.43;100862.53;6225086;23;20028;-72
2022/04/04 00:27:30;;;;;;;11.00;5.93;;;;;;;4.20;67.25;100860.44;6196093;23;20443;-71
2022/04/04 00:29:56;;;;;;;7.85;5.38;;;;;;;4.19;67.30;100858.78;6171811;23;20045;-71
2022/04/04 00:32:21;;;;;;;12.57;5.75;;;;;;;4.18;67.38;100854.44;6197566;23;20031;-71
2022/04/04 00:34:46;;;;;;;7.95;5.70;;;;;;;4.17;67.12;100839.22;6196093;23;20009;-72
2022/04/04 00:37:12;;;;;;;6.50;5.05;;;;;;;4.16;67.46;100827.56;6172000;23;20428;-73
2022/04/04 00:39:38;;;;;;;11.60;5.18;;;;;;;4.08;66.47;100818.84;6226674;23;20005;-73
2022/04/04 00:42:04;;;;;;;7.30;5.15;;;;;;;4.09;67.52;100821.34;6225155;23;20053;-73
2022/04/04 00:44:33;;;;;;;10.10;4.97;;;;;;;3.95;67.45;100793.47;6223844;23;20472;-72
2022/04/04 00:47:01;;;;;;;9.48;5.20;;;;;;;3.91;67.74;100784.13;6224865;23;20001;-74
2022/04/04 00:49:34;;;;;;;8.38;4.85;;;;;;;4.06;67.85;100804.69;6197879;23;20000;-74
2022/04/04 00:52:07;;;;;;;12.52;5.68;;;;;;;4.01;67.55;100787.22;6174310;23;20007;-73
2022/04/04 00:54:32;;;;;;;7.95;5.15;;;;;;;3.94;67.60;100791.84;6198567;23;20011;-73
2022/04/04 00:57:01;;;;;;;9.20;5.07;;;;;;;3.84;68.28;100781.47;6219818;23;20008;-74
2022/04/04 00:59:27;;;;;;;7.40;5.43;;;;;;;3.81;68.09;100783.75;6197025;23;20004;-72
2022/04/04 01:01:57;;;;;;;11.35;5.90;;;;;;;3.81;69.19;100783.75;6199741;23;20004;-72
2022/04/04 01:04:23;;;;;;;7.18;5.00;;;;;;;3.80;69.29;100782.09;6199255;23;20000;-74
2022/04/04 01:06:50;;;;;;;12.20;5.18;;;;;;;3.76;68.56;100778.97;6174969;23;20024;-74
2022/04/04 01:09:16;;;;;;;11.82;4.88;;;;;;;3.92;69.30;100796.63;6173155;23;20167;-74
2022/04/04 01:12:05;;;;;;;10.48;5.65;;;;;;;3.99;68.48;100792.03;6197496;23;20009;-75
2022/04/04 01:14:33;;;;;;;6.45;4.90;;;;;;;4.05;68.78;100786.81;6195976;23;20040;-74
2022/04/04 01:17:02;;;;;;;14.00;5.18;;;;;;;4.01;68.34;100765.56;6196810;23;20004;-74
2022/04/04 01:19:36;;;;;;;8.40;5.72;;;;;;;4.13;68.84;100770.31;6195748;23;20016;-73
2022/04/04 01:22:09;;;;;;;9.57;5.05;;;;;;;4.10;67.88;100758.03;6196142;23;20163;-74
2022/04/04 01:24:37;;;;;;;8.70;5.05;;;;;;;4.19;68.30;100769.44;6195362;23;20076;-75
2022/04/04 01:27:08;;;;;;;6.88;4.75;;;;;;;4.25;68.01;100765.03;6196622;23;20012;-75
2022/04/04 01:29:36;;;;;;;7.57;4.55;;;;;;;4.24;68.19;100761.53;6168950;23;20050;-73
2022/04/04 01:32:07;;;;;;;11.07;4.90;;;;;;;4.12;67.78;100738.91;6220566;23;20007;-73
2022/04/04 01:34:33;;;;;;;8.77;4.82;;;;;;;4.22;68.22;100743.81;6199304;23;20009;-72
2022/04/04 01:36:59;;;;;;;7.72;4.97;;;;;;;4.17;67.92;100741.78;6169776;23;20037;-72
2022/04/04 01:39:28;;;;;;;6.47;4.88;;;;;;;4.11;67.97;100715.56;6219407;23;20015;-71
2022/04/04 01:42:03;;;;;;;;;;;;;;;;;;;;;
2022/04/04 01:44:30;;;;;;;6.75;4.80;;;;;;;4.29;68.22;100734.66;6220967;23;20024;-72
2022/04/04 01:46:58;;;;;;;6.15;5.05;;;;;;;4.23;67.84;100718.44;6193539;23;20031;-72
2022/04/04 01:49:24;;;;;;;12.93;5.72;;;;;;;4.31;68.25;100721.72;6194411;23;20010;-71
2022/04/04 01:51:49;;;;;;;7.47;4.60;;;;;;;4.25;67.94;100717.16;6193682;23;20004;-71
2022/04/04 01:54:15;;;;;;;6.57;4.78;;;;;;;4.16;67.74;100691.38;6191132;23;20031;-71
2022/04/04 01:56:43;;;;;;;7.22;4.43;;;;;;;4.19;68.32;100696.34;6166975;23;20032;-73
2022/04/04 01:59:09;;;;;;;8.20;4.72;;;;;;;4.15;68.92;100695.97;6170570;23;20059;-73
2022/04/04 02:01:35;;;;;;;7.18;4.20;;;;;;;4.14;68.54;100679.94;6195082;23;20017;-71
2022/04/04 02:04:06;;;;;;;8.23;4.93;;;;;;;4.24;68.34;100699.25;6194820;23;20008;-70
2022/04/04 02:06:33;;;;;;;5.20;4.05;;;;;;;4.20;68.77;100676.38;6193674;23;20012;-71
2022/04/04 02:08:58;;;;;;;6.38;4.25;;;;;;;4.27;68.96;100687.97;6171416;23;20082;-72
2022/04/04 02:11:27;;;;;;;7.65;4.70;;;;;;;4.26;69.15;100685.50;6191714;23;20004;-72
2022/04/04 02:14:05;;;;;;;;;;;;;;;;;;;;;
2022/04/04 02:19:29;;;;;;;10.20;4.32;;;;;;;4.30;68.82;100659.66;6195167;23;20083;-71
2022/04/04 02:21:55;;;;;;;8.68;4.30;;;;;;;4.31;69.29;100662.16;6220043;23;20065;-72
2022/04/04 02:24:20;;;;;;;7.25;4.10;;;;;;;4.32;69.13;100660.25;6165981;23;20012;-71
2022/04/04 02:26:46;;;;;;;6.82;4.40;;;;;;;4.34;69.29;100661.69;6191600;23;20001;-72
2022/04/04 02:29:27;;;;;;;5.40;3.65;;;;;;;4.37;69.99;100655.03;6170430;23;20015;-72
2022/04/04 02:31:52;;;;;;;8.40;4.38;;;;;;;4.33;69.18;100649.19;6166504;23;20056;-72
2022/04/04 02:34:18;;;;;;;6.00;3.85;;;;;;;4.32;69.06;100631.31;6168389;23;20017;-71
2022/04/04 02:36:44;;;;;;;5.43;3.80;;;;;;;4.36;69.17;100627.09;6195462;23;20312;-72
2022/04/04 02:39:09;;;;;;;10.18;4.50;;;;;;;4.43;69.59;100631.66;6168628;23;20012;-69
2022/04/04 02:42:26;;;;;;;4.53;3.53;;;;;;;4.51;69.51;100628.66;6218839;23;19997;-70
2022/04/04 02:44:54;;;;;;;6.68;3.55;;;;;;;4.62;69.38;100633.38;6202510;23;20436;-71
2022/04/04 02:47:23;;;;;;;5.28;3.70;;;;;;;4.56;69.43;100618.00;6192744;23;20432;-72
2022/04/04 02:49:51;;;;;;;5.80;3.60;;;;;;;4.61;69.17;100623.56;6167988;23;20532;-69
2022/04/04 02:52:17;;;;;;;5.72;3.05;;;;;;;4.65;69.44;100608.53;6192517;23;20011;-70
2022/04/04 02:54:43;;;;;;;6.68;3.42;;;;;;;4.71;69.39;100613.06;6193107;23;20446;-72
2022/04/04 02:57:09;;;;;;;5.90;2.92;;;;;;;4.74;69.58;100600.97;6194407;23;20071;-74
2022/04/04 03:00:28;;;;;;;;;;;;;;;;;;;;;
2022/04/04 03:09:31;;;;;;;4.93;2.67;;;;;;;4.53;73.33;100583.25;6072233;23;20006;-73
2022/04/04 03:11:57;;;;;;;6.40;3.28;;;;;;;4.54;73.57;100595.72;6117015;23;20099;-72
2022/04/04 03:14:22;;;;;;;5.15;2.97;;;;;;;4.40;74.29;100567.13;6169480;23;20096;-73
2022/04/04 03:16:48;;;;;;;5.85;3.25;;;;;;;4.41;74.49;100563.34;6194658;23;20376;-73
2022/04/04 03:19:22;;;;;;;5.10;2.97;;;;;;;4.37;74.91;100547.53;6197138;23;20015;-72
2022/04/04 03:21:48;;;;;;;5.60;3.22;;;;;;;4.49;75.71;100572.00;6168874;23;20009;-72
2022/04/04 03:24:19;;;;;;;6.88;3.20;;;;;;;4.36;76.04;100551.28;6168581;23;20032;-72
2022/04/04 03:26:46;;;;;;;5.00;3.08;;;;;;;4.34;77.09;100553.41;6219629;23;20004;-73
2022/04/04 03:29:12;;;;;;;4.30;3.28;;;;;;;4.38;78.08;100553.81;6192988;23;20066;-74
2022/04/04 03:31:37;;;;;;;5.05;3.15;;;;;;;4.36;78.77;100556.69;6194442;23;20055;-73
2022/04/04 03:34:03;;;;;;;9.57;3.55;;;;;;;4.33;79.61;100551.72;6195365;23;20310;-71
2022/04/04 03:36:30;;;;;;;3.97;3.30;;;;;;;4.24;80.07;100531.41;6220540;23;20396;-71
2022/04/04 03:38:55;;;;;;;4.25;2.92;;;;;;;4.28;80.67;100543.47;6172161;23;20072;-73
2022/04/04 03:41:21;;;;;;;6.80;2.97;;;;;;;4.23;81.05;100531.63;6172246;23;20008;-72
2022/04/04 03:43:49;;;;;;;4.80;3.20;;;;;;;4.18;82.03;100522.28;6171234;23;20069;-73
2022/04/04 03:46:16;;;;;;;3.22;2.88;;;;;;;4.21;81.95;100526.44;6196439;23;20007;-73
2022/04/04 03:48:44;;;;;;;3.67;2.97;;;;;;;4.11;82.55;100509.88;6221096;23;20000;-71
2022/04/04 03:51:10;;;;;;;5.18;3.08;;;;;;;4.19;83.07;100513.13;6194856;23;20009;-72
2022/04/04 03:53:48;;;;;;;3.30;2.65;;;;;;;4.29;83.00;100515.34;6167859;23;20051;-71
2022/04/04 03:56:14;;;;;;;7.93;3.25;;;;;;;4.26;83.53;100506.81;6195282;23;20014;-72
2022/04/04 03:58:43;;;;;;;4.70;3.20;;;;;;;4.16;83.62;100491.06;6192245;23;20083;-71
2022/04/04 04:01:10;;;;;;;9.20;2.70;;;;;;;4.16;84.07;100488.38;6219341;23;20019;-72
2022/04/04 04:03:36;;;;;;;6.10;2.90;;;;;;;4.19;84.81;100490.63;6167503;23;20012;-71
2022/04/04 04:06:11;;;;;;;4.22;2.75;;;;;;;4.12;85.38;100473.66;6169387;23;20394;-74
2022/04/04 04:08:42;;;;;;;4.57;3.10;;;;;;;4.20;86.20;100481.47;6167870;23;20075;-74
2022/04/04 04:11:13;;;;;;;5.93;2.90;;;;;;;4.19;86.62;100477.09;6193422;23;20450;-73
2022/04/04 04:13:40;;;;;;;3.67;2.60;;;;;;;4.15;86.61;100468.59;6165348;23;20099;-73
2022/04/04 04:16:09;;;;;;;5.15;2.78;;;;;;;4.14;86.51;100460.72;6191653;23;20015;-73
2022/04/04 04:18:37;;;;;;;5.57;2.65;;;;;;;4.25;87.15;100468.09;6191719;23;20004;-73
2022/04/04 04:21:04;;;;;;;5.97;2.88;;;;;;;4.22;87.76;100463.16;6191571;23;20012;-72
2022/04/04 04:23:30;;;;;;;4.72;2.25;;;;;;;4.15;88.31;100451.56;6191960;23;20071;-73
2022/04/04 04:25:56;;;;;;;7.50;2.95;;;;;;;4.13;88.45;100437.41;6160914;23;20416;-73
2022/04/04 04:28:22;;;;;;;3.95;2.60;;;;;;;4.19;88.41;100441.91;6190797;23;20092;-73
2022/04/04 04:30:48;;;;;;;5.55;3.15;;;;;;;4.16;88.39;100431.53;6191298;23;20004;-72
2022/04/04 04:33:14;;;;;;;5.32;2.75;;;;;;;4.20;89.00;100438.16;6193168;23;20044;-72
2022/04/04 04:35:43;;;;;;;6.72;3.10;;;;;;;4.19;88.97;100431.09;6196067;23;20031;-73
2022/04/04 04:38:27;;;;;;;5.80;2.25;;;;;;;4.19;89.10;100420.25;6196223;23;20016;-72
2022/04/04 04:48:25;;;;;;;4.97;2.85;;;;;;;4.12;91.60;100404.09;6126874;23;19956;-73
2022/04/04 04:54:23;;;;;;;3.47;2.42;;;;;;;4.01;92.34;100381.28;6124222;23;20089;-75
2022/04/04 05:04:00;;;;;;;;;;;;;;;;;;;;;
2022/04/04 05:06:25;;;;;;;4.90;2.88;;;;;;;4.14;93.27;100364.09;6086236;23;20014;-74
2022/04/04 05:08:51;;;;;;;4.13;3.05;;;;;;;4.10;93.40;100359.34;6101741;23;20041;-75
2022/04/04 05:11:19;;;;;;;6.00;2.70;;;;;;;4.01;93.89;100340.69;6079035;23;20006;-74
2022/04/04 05:13:44;;;;;;;3.83;2.80;;;;;;;3.97;94.45;100335.97;6173459;23;20039;-74
2022/04/04 05:16:10;;;;;;;4.28;2.60;;;;;;;3.91;94.73;100315.22;6193728;23;20017;-73
2022/04/04 05:18:47;;;;;;;8.70;3.35;;;;;;;3.93;94.95;100329.34;6219999;23;20008;-74
2022/04/04 05:21:31;;;;;;;;;;;;;;;;;;;;;
2022/04/04 05:24:29;;;;;;;3.25;2.60;;;;;;;4.06;95.61;100340.06;6195640;23;20474;-74
2022/04/04 05:30:23;;;;;;;3.95;2.80;;;;;;;4.04;96.08;100311.56;6126917;23;20093;-75
2022/04/04 05:33:06;;;;;;;4.25;2.55;;;;;;;4.14;96.30;100325.38;6117600;23;20101;-73
2022/04/04 05:36:18;;;;;;;;;;;;;;;;;;;;;
2022/04/04 05:43:10;;;;;;;;;;;;;;;;;;;;;
2022/04/04 05:45:36;;;;;;;6.43;2.67;;;;;;;4.16;97.94;100317.84;6056921;23;20042;-71
2022/04/04 05:48:02;;;;;;;7.75;2.85;;;;;;;4.16;98.03;100312.44;6188603;23;20016;-73
2022/04/04 05:50:28;;;;;;;5.45;3.00;;;;;;;4.23;97.91;100313.19;6217620;23;20000;-72
2022/04/04 05:52:56;;;;;;;10.02;2.95;;;;;;;4.21;98.15;100301.78;6191688;23;20011;-73
2022/04/04 05:55:22;;;;;;;8.35;3.50;;;;;;;4.25;98.52;100305.69;6187677;23;20050;-71
2022/04/04 05:57:47;;;;;;;12.77;3.90;;;;;;;4.09;98.69;100282.78;6214643;23;20416;-72
2022/04/04 06:00:22;;;;;;;8.95;2.75;;;;;;;4.29;98.58;100298.78;6213757;23;20005;-72
2022/04/04 06:02:47;;;;;;;5.55;2.53;;;;;;;4.30;99.09;100303.13;6211735;23;20024;-71
2022/04/04 06:05:13;;;;;;;9.32;2.90;;;;;;;4.34;99.00;100303.50;6188037;23;20013;-72
2022/04/04 06:07:40;;;;;;;5.70;2.70;;;;;;;4.40;98.91;100291.75;6215753;23;20013;-71
2022/04/04 06:10:10;;;;;;;4.03;2.40;;;;;;;4.36;99.21;100280.53;6185723;23;20015;-70
2022/04/04 06:12:40;;;;;;;4.22;2.78;;;;;;;4.46;99.09;100290.00;6186569;23;20012;-69
2022/04/04 06:15:08;;;;;;;6.85;3.10;;;;;;;4.45;99.57;100277.53;6186949;23;20015;-73
2022/04/04 06:17:52;;;;;;;6.25;2.45;;;;;;;4.34;99.06;100266.41;6190776;23;20331;-75
2022/04/04 06:20:51;;;;;;;;;;;;;;;;;;;;;
2022/04/04 06:27:00;;;;;;;8.50;2.85;;;;;;;4.48;99.61;100275.19;6218711;23;20498;-75
2022/04/04 06:29:40;;;;;;;;;;;;;;;;;;;;;
2022/04/04 06:44:08;;;;;;;4.57;2.83;;;;;;;4.71;100.00;100263.59;6252209;22;20020;-74
2022/04/04 06:46:51;;;;;;;;;;;;;;;;;;;;;
2022/04/04 06:49:53;;;;;;;5.25;3.17;;;;;;;4.44;100.00;100217.13;6229656;23;20027;-78
2022/04/04 06:55:37;;;;;;;5.05;2.53;;;;;;;4.74;100.00;100250.66;6227157;23;20000;-75
2022/04/04 06:58:03;;;;;;;5.50;2.75;;;;;;;4.84;100.00;100259.88;6255361;23;20031;-76
2022/04/04 07:00:28;;;;;;;9.93;2.85;;;;;;;4.87;100.00;100258.56;6201456;23;20701;-74
2022/04/04 07:03:10;;;;;;;7.82;2.75;;;;;;;4.86;100.00;100243.38;6224952;23;20015;-76
2022/04/04 07:05:39;;;;;;;4.68;2.40;;;;;;;4.91;100.00;100243.50;6202352;23;20026;-78
2022/04/04 07:08:30;;;;;;;5.45;2.75;;;;;;;5.00;100.00;100258.38;6226936;23;19996;-75
2022/04/04 07:11:03;;;;;;;6.65;2.55;;;;;;;4.94;100.00;100237.63;6210303;23;20004;-76
2022/04/04 07:13:57;;;;;;;;;;;;;;;;;;;;;
2022/04/04 07:16:32;;;;;;;8.27;2.83;;;;;;;5.11;100.00;100228.78;6251516;23;20024;-75
2022/04/04 07:18:58;;;;;;;4.85;2.40;;;;;;;5.02;100.00;100207.47;6225989;23;20008;-75
2022/04/04 07:21:23;;;;;;;3.38;2.50;;;;;;;5.28;100.00;100234.34;6251319;23;20038;-75
2022/04/04 07:23:54;;;;;;;5.68;2.28;;;;;;;5.21;100.00;100216.31;6223555;23;20035;-75
2022/04/04 07:26:21;;;;;;;8.52;2.58;;;;;;;5.20;100.00;100205.72;6223013;23;20502;-74
2022/04/04 07:28:47;;;;;;;7.00;2.53;;;;;;;5.38;100.00;100237.31;6200352;23;20087;-75
2022/04/04 07:31:17;;;;;;;6.07;1.95;;;;;;;5.37;100.00;100220.22;6250917;23;20306;-74
2022/04/04 07:33:44;;;;;;;5.45;2.10;;;;;;;5.36;100.00;100207.72;6224527;23;20007;-75
2022/04/04 07:36:12;;;;;;;3.22;2.05;;;;;;;5.48;99.86;100215.84;6224004;23;20012;-75
2022/04/04 07:38:38;;;;;;;7.95;2.65;;;;;;;5.49;100.00;100213.94;6252499;23;20008;-75
2022/04/04 07:41:03;;;;;;;4.82;1.88;;;;;;;5.57;100.00;100224.44;6182166;23;20484;-75
2022/04/04 07:43:29;;;;;;;3.30;1.95;;;;;;;5.63;99.78;100211.81;6234550;23;20016;-75
2022/04/04 07:45:57;;;;;;;3.15;2.10;;;;;;;5.60;99.66;100196.81;6259511;23;20153;-75
2022/04/04 07:48:22;;;;;;;7.43;2.85;;;;;;;5.74;99.13;100197.41;6260830;23;20099;-76
2022/04/04 07:50:47;;;;;;;4.40;1.98;;;;;;;5.74;98.93;100198.22;6248075;23;20003;-76
2022/04/04 07:53:13;;;;;;;3.13;1.83;;;;;;;5.73;99.25;100185.72;6252033;23;20004;-76
2022/04/04 07:55:40;;;;;;;3.03;1.65;;;;;;;5.94;98.12;100191.53;6226543;23;20008;-77
2022/04/04 07:58:05;;;;;;;9.07;2.08;;;;;;;5.97;98.22;100198.38;6224104;23;20511;-75
2022/04/04 08:00:34;;;;;;;6.45;1.90;;;;;;;6.06;98.04;100216.81;6224928;23;19997;-75
2022/04/04 08:03:08;;;;;;;6.43;1.77;;;;;;;6.03;97.83;100187.44;6251079;23;20014;-76
2022/04/04 08:05:39;;;;;;;3.63;1.75;;;;;;;6.14;97.60;100185.72;6201565;23;20001;-76
2022/04/04 08:08:13;;;;;;;2.33;1.40;;;;;;;6.16;97.30;100180.06;6223791;23;20000;-76
2022/04/04 08:10:39;;;;;;;1.65;1.38;;;;;;;6.23;97.12;100161.72;6201953;23;20008;-77
2022/04/04 08:13:04;;;;;;;2.22;1.58;;;;;;;6.51;96.95;100188.03;6253276;23;20114;-77
2022/04/04 08:15:30;;;;;;;1.40;1.20;;;;;;;6.59;96.54;100197.69;6201867;23;20038;-77
2022/04/04 08:17:56;;;;;;;3.70;1.65;;;;;;;6.57;96.42;100188.94;6199961;23;20008;-76
2022/04/04 08:20:22;;;;;;;4.78;1.42;;;;;;;6.70;96.01;100182.38;6252453;23;20427;-76
2022/04/04 08:23:00;;;;;;;;;;;;;;;;;;;;;
2022/04/04 08:25:25;;;;;;;2.25;1.45;;;;;;;6.81;95.83;100163.25;6228289;23;20035;-75
2022/04/04 08:27:51;;;;;;;1.58;1.27;;;;;;;6.84;95.15;100144.81;6224153;23;20012;-77
2022/04/04 08:30:21;;;;;;;1.60;1.30;;;;;;;6.98;95.47;100151.56;6202201;23;20039;-76
2022/04/04 08:32:49;;;;;;;2.90;1.50;;;;;;;7.09;94.13;100137.03;6226294;23;20034;-79
2022/04/04 08:35:23;;;;;;;3.90;1.40;;;;;;;7.30;94.86;100167.25;6227134;23;20031;-80
2022/04/04 08:37:51;;;;;;;3.13;1.35;;;;;;;7.47;94.28;100167.22;6226270;23;20011;-77
2022/04/04 08:40:28;;;;;;;4.53;1.40;;;;;;;7.26;93.71;100131.56;6226989;23;20046;-78
2022/04/04 08:42:54;;;;;;;3.33;1.42;;;;;;;7.32;93.21;100136.00;6225263;23;20054;-77
2022/04/04 08:45:28;;;;;;;1.20;0.88;;;;;;;7.60;93.39;100169.56;6200801;23;20012;-77
2022/04/04 08:48:06;;;;;;;1.57;0.83;;;;;;;7.36;93.06;100125.47;6226361;23;19999;-75
2022/04/04 08:50:42;;;;;;;3.45;1.30;;;;;;;7.37;93.11;100113.47;6228721;23;20008;-75
2022/04/04 08:53:28;;;;;;;3.42;1.15;;;;;;;7.63;93.54;100141.84;6225236;23;20004;-74
2022/04/04 08:56:00;;;;;;;1.13;0.80;;;;;;;7.74;93.42;100137.34;6224448;23;20011;-77
2022/04/04 08:58:25;;;;;;;1.02;0.80;;;;;;;7.75;92.59;100116.38;6199988;23;20022;-75
2022/04/04 09:00:51;;;;;;;4.03;1.30;;;;;;;7.94;91.95;100144.09;6253083;23;20031;-75
2022/04/04 09:03:31;;;;;;;7.25;1.00;;;;;;;8.03;92.25;100131.66;6225290;23;20008;-75
2022/04/04 09:05:58;;;;;;;1.48;0.80;;;;;;;8.04;91.58;100136.03;6225915;23;20095;-75
2022/04/04 09:08:28;;;;;;;1.45;0.80;;;;;;;8.02;91.88;100117.25;6199661;23;20004;-74
2022/04/04 09:10:56;;;;;;;1.00;0.90;;;;;;;8.16;92.86;100123.09;6246304;23;20008;-74
2022/04/04 09:13:24;;;;;;;2.25;0.93;;;;;;;8.12;91.75;100127.41;6252199;23;20027;-77
2022/04/04 09:15:55;;;;;;;2.00;0.95;;;;;;;8.21;91.87;100117.69;6253549;23;20000;-76
2022/04/04 09:18:41;;;;;;;0.80;0.80;;;;;;;8.23;91.09;100111.19;6225813;23;20015;-77
2022/04/04 09:21:12;;;;;;;4.72;1.00;;;;;;;8.44;92.33;100131.25;6226478;23;20004;-78
2022/04/04 09:23:46;;;;;;;1.25;1.00;;;;;;;8.48;91.37;100130.50;6226006;23;20008;-76
2022/04/04 09:26:35;;;;;;;2.92;1.17;;;;;;;8.68;91.07;100134.50;6225507;23;20244;-74
2022/04/04 09:29:05;;;;;;;2.50;0.90;;;;;;;8.74;90.47;100119.81;6224460;23;20003;-78
2022/04/04 09:31:33;;;;;;;1.63;0.90;;;;;;;8.77;90.85;100119.28;6227659;23;20066;-76
2022/04/04 09:34:08;;;;;;;2.47;0.88;;;;;;;8.80;90.11;100121.47;6223022;23;20004;-76
2022/04/04 09:36:54;;;;;;;0.80;0.80;;;;;;;8.69;90.03;100097.97;6251976;23;20000;-76
2022/04/04 09:39:20;;;;;;;1.70;0.90;;;;;;;8.80;90.40;100131.56;6251686;23;20006;-76
2022/04/04 09:42:21;;;;;;;1.90;1.00;;;;;;;8.77;91.41;100132.91;6226337;23;20016;-76
2022/04/04 09:49:03;;;;;;;1.42;0.93;;;;;;;8.74;92.38;100127.97;6161340;23;20020;-77
2022/04/04 09:51:58;;;;;;;1.48;1.00;;;;;;;8.86;92.13;100136.81;6093418;23;20012;-76
2022/04/04 10:29:25;;;;;;;1.40;0.88;;;;;;;10.50;87.69;100108.50;5981229;24;20016;-75
2022/04/04 10:31:59;;;;;;;1.27;0.80;;;;;;;10.25;87.85;100101.91;5952957;24;20009;-75
2022/04/04 10:42:41;;;;;;;1.15;1.05;;;;;;;10.67;87.91;100112.88;5876819;24;20025;-74
2022/04/04 11:10:03;;;;;;;;;;;;;;;;;;;;;
2022/04/04 11:12:21;;;;;;;6.90;2.05;;;;;;;11.99;80.48;100028.63;6011578;23;20037;-74
2022/04/04 11:19:18;;;;;;;3.35;1.77;;;;;;;12.61;81.86;100052.78;5973240;24;20020;-75
2022/04/04 11:22:14;;;;;;;;;;;;;;;13.24;79.23;100057.34;5986552;24;20015;-74
2022/04/04 11:46:23;;;;;;;6.85;3.47;;;;;;;13.65;73.70;100003.00;5961232;24;20100;-75
2022/04/04 11:53:32;;;;;;;;;;;;;;;;;;;;;
2022/04/04 12:03:58;;;;;;;10.65;3.50;;;;;;;12.92;76.58;100034.09;5932725;24;20048;-75
2022/04/04 12:17:29;;;;;;;8.32;4.22;;;;;;;14.12;72.49;100010.25;6004628;23;20060;-77
2022/04/04 14:36:47;;;;;;;10.02;2.90;;;;;;;14.99;66.40;100001.59;6286646;22;20020;-75
2022/04/04 14:39:18;;;;;;;8.70;3.20;;;;;;;14.86;67.39;99988.63;6258535;22;20035;-77
2022/04/04 16:13:47;;;;;;;13.57;2.63;;;;;;;13.81;71.55;99978.88;6225764;22;20027;-76
2022/04/04 16:24:12;;;;;;;;;;;;;;;;;;;;;
2022/04/04 16:38:05;;;;;;;6.50;2.20;;;;;;;13.90;71.64;99990.81;5931267;24;20550;-76
2022/04/04 16:48:33;;;;;;;9.40;2.58;;;;;;;13.63;73.80;99991.53;5884532;24;20064;-77
2022/04/04 16:54:37;;;;;;;;;;;;;;;13.21;74.94;99985.72;5927526;24;20073;-77
2022/04/04 16:57:17;;;;;;;12.45;2.70;;;;;;;12.74;75.21;99961.56;5921447;23;19930;-75
2022/04/04 16:59:52;;;;;;;4.78;1.88;;;;;;;12.51;76.13;99956.91;6048723;23;20015;-77
2022/04/04 17:09:31;;;;;;;7.20;2.13;;;;;;;12.35;77.86;99984.50;6013891;23;20044;-77
2022/04/04 17:19:08;;;;;;;;;;;;;;;;;;;;;
2022/04/04 17:22:01;;;;;;;5.72;1.05;;;;;;;13.68;72.70;99959.28;6053763;23;20010;-78
2022/04/04 17:28:30;;;;;;;4.47;1.17;;;;;;;14.81;69.28;99990.38;5985081;24;20012;-80
2022/04/04 17:31:09;;;;;;;;;;;;;;;;;;;;;
2022/04/04 17:33:37;;;;;;;4.18;1.25;;;;;;;13.94;69.49;99954.22;6090345;23;20036;-80
2022/04/04 17:36:19;;;;;;;;;;;;;;;;;;;;;
2022/04/04 17:39:05;;;;;;;6.35;1.33;;;;;;;13.27;72.24;99957.91;6131018;23;20033;-80
2022/04/04 17:41:33;;;;;;;5.00;1.38;;;;;;;13.06;73.08;99951.06;6129295;23;20009;-79
2022/04/04 17:44:25;;;;;;;3.65;1.27;;;;;;;12.95;73.36;99966.81;6105739;23;20006;-79
2022/04/04 17:46:51;;;;;;;3.97;1.52;;;;;;;12.60;74.64;99930.50;6258063;22;20046;-80
2022/04/04 17:49:49;;;;;;;7.13;1.38;;;;;;;12.67;74.66;99961.09;6228867;22;20011;-80
2022/04/04 17:52:17;;;;;;;5.38;1.23;;;;;;;12.43;75.45;99943.84;6256495;22;20007;-79
2022/04/04 17:55:19;;;;;;;;;;;;;;;;;;;;;
2022/04/04 17:57:36;;;;;;;6.57;1.30;;;;;;;12.26;76.77;99947.81;6274087;22;20031;-80
2022/04/04 18:00:11;;;;;;;3.35;0.90;;;;;;;12.18;76.93;99949.28;6257379;22;20005;-80
2022/04/04 18:03:07;;;;;;;3.10;1.30;;;;;;;12.26;77.17;99967.00;6253305;22;20023;-78
2022/04/04 18:05:32;;;;;;;8.10;1.52;;;;;;;12.09;78.03;99944.69;6254995;22;20010;-79
2022/04/04 18:07:58;;;;;;;8.10;1.70;;;;;;;12.24;78.27;99980.19;6253864;22;20059;-77
2022/04/04 18:10:24;;;;;;;5.88;1.73;;;;;;;12.11;78.65;99967.97;6283445;22;20545;-79
2022/04/04 18:12:54;;;;;;;5.13;2.05;;;;;;;11.98;78.38;99950.25;6282097;22;20015;-77
2022/04/04 18:15:23;;;;;;;2.50;1.38;;;;;;;12.12;78.96;99980.56;6247399;22;20012;-77
2022/04/04 18:17:58;;;;;;;;;;;;;;;;;;;;;
2022/04/04 18:20:55;;;;;;;5.72;1.80;;;;;;;12.01;79.48;99982.56;6224880;23;20048;-77
2022/04/04 18:29:30;;;;;;;6.88;1.63;;;;;;;11.58;79.87;99946.72;6229906;23;20008;-77
2022/04/04 18:32:05;;;;;;;12.98;2.13;;;;;;;11.58;80.13;99951.34;6244310;23;20102;-74
2022/04/04 18:34:40;;;;;;;7.18;1.70;;;;;;;11.62;80.94;99968.84;6191921;23;20526;-77
2022/04/04 18:37:13;;;;;;;6.68;1.70;;;;;;;11.53;81.29;99971.38;6217617;23;20008;-78
2022/04/04 18:39:38;;;;;;;8.13;1.83;;;;;;;11.40;81.45;99956.38;6244055;23;20004;-76
2022/04/04 18:42:05;;;;;;;5.20;1.73;;;;;;;11.46;81.93;99977.19;6192800;23;20032;-75
2022/04/04 18:44:41;;;;;;;;;;;;;;;;;;;;;
2022/04/04 18:47:19;;;;;;;;;;;;;;;;;;;;;
2022/04/04 18:49:44;;;;;;;6.03;2.40;;;;;;;11.21;83.27;99966.38;6253553;23;20075;-82
2022/04/04 18:52:37;;;;;;;;;;;;;;;;;;;;;
2022/04/04 18:55:13;;;;;;;6.10;2.60;;;;;;;10.81;84.14;99938.91;6231962;23;20044;-86
2022/04/04 18:57:39;;;;;;;6.00;2.90;;;;;;;10.85;84.99;99950.94;6224465;23;20008;-79
2022/04/04 19:00:22;;;;;;;;;;;;;;;;;;;;;
2022/04/04 19:06:17;;;;;;;10.95;2.80;;;;;;;10.70;86.07;99981.06;6168617;23;20001;-79
2022/04/04 19:09:13;;;;;;;;;;;;;;;;;;;;;
2022/04/04 19:12:17;;;;;;;7.13;3.05;;;;;;;10.42;87.20;99964.97;6257022;23;20004;-81
2022/04/04 19:14:48;;;;;;;5.38;2.75;;;;;;;10.27;87.04;99952.13;6221809;23;20004;-81
2022/04/04 19:17:56;;;;;;;6.80;3.00;;;;;;;10.38;87.29;99980.31;6243429;23;20091;-80
2022/04/04 19:20:22;;;;;;;6.30;2.90;;;;;;;10.38;88.52;99991.25;6225148;23;20071;-80
2022/04/04 19:22:50;;;;;;;10.43;3.60;;;;;;;10.23;88.44;99983.03;6228118;23;20402;-78
2022/04/04 19:31:39;;;;;;;3.22;2.78;;;;;;;9.91;90.08;99976.72;6250568;23;20008;-79
2022/04/04 19:34:38;;;;;;;5.80;3.35;;;;;;;10.05;90.59;100009.78;6226357;23;20038;-79
2022/04/04 19:37:40;;;;;;;6.18;3.70;;;;;;;9.89;91.43;99987.13;6203545;23;20008;-79
2022/04/04 19:40:12;;;;;;;12.10;3.53;;;;;;;9.86;91.67;99993.13;6250286;23;20070;-76
2022/04/04 19:42:59;;;;;;;;;;;;;;;;;;;;;
2022/04/04 19:45:25;;;;;;;7.45;3.47;;;;;;;9.90;92.16;100013.34;6253176;23;20407;-78
2022/04/04 19:48:20;;;;;;;7.63;3.80;;;;;;;9.62;92.82;99976.41;6202413;23;20015;-80
2022/04/04 19:50:48;;;;;;;5.70;3.20;;;;;;;9.69;92.74;99989.81;6216573;23;20011;-81
2022/04/04 19:53:28;;;;;;;4.85;3.00;;;;;;;9.65;92.45;99995.03;6227405;23;20008;-77
2022/04/04 19:56:03;;;;;;;5.50;3.47;;;;;;;9.64;92.57;99987.91;6226232;23;20494;-78
2022/04/04 20:02:00;;;;;;;3.10;2.33;;;;;;;9.63;93.17;99990.91;6130108;23;20034;-79
2022/04/04 20:11:47;;;;;;;6.30;2.97;;;;;;;9.87;93.32;100030.28;6051302;23;20021;-77
2022/04/04 20:18:29;;;;;;;5.47;2.90;;;;;;;9.86;93.68;100030.56;6040384;23;20027;-78
2022/04/04 20:21:07;;;;;;;;;;;;;;;;;;;;;
2022/04/04 20:23:45;;;;;;;6.25;3.10;;;;;;;9.72;93.57;100013.84;6278860;22;20027;-77
2022/04/04 20:26:14;;;;;;;11.70;3.70;;;;;;;9.87;93.43;100030.28;6262974;22;20004;-76
2022/04/04 20:28:39;;;;;;;8.95;4.22;;;;;;;9.82;94.08;100016.59;6260564;22;20046;-77
2022/04/04 20:31:08;;;;;;;4.55;3.50;;;;;;;9.86;93.66;100027.81;6213049;22;20023;-78
2022/04/04 20:34:01;;;;;;;7.80;4.18;;;;;;;9.62;93.94;99995.53;6259734;22;20059;-76